sensor_id;sensor_type;location;lat;lon;timestamp;P1;durP1;ratioP1;P2;durP2;ratioP2
11548;SDS011;61444;59.472;18.306;2023-09-19T00:02:07;7.83;;;5.20;;
11548;SDS011;61444;59.472;18.306;2023-09-19T00:04:16;9.30;;;4.73;;
11548;SDS011;61444;59.472;18.306;2023-09-19T00:06:29;10.30;;;5.40;;
11548;SDS011;61444;59.472;18.306;2023-09-19T00:08:38;8.73;;;4.90;;
11548;SDS011;61444;59.472;18.306;2023-09-19T00:10:52;8.33;;;5.27;;
11548;SDS011;61444;59.472;18.306;2023-09-19T00:13:03;6.60;;;5.07;;
11548;SDS011;61444;59.472;18.306;2023-09-19T00:15:14;8.67;;;5.03;;
11548;SDS011;61444;59.472;18.306;2023-09-19T00:17:24;9.40;;;5.30;;
11548;SDS011;61444;59.472;18.306;2023-09-19T00:19:33;8.13;;;4.80;;
11548;SDS011;61444;59.472;18.306;2023-09-19T00:21:42;8.10;;;5.03;;
11548;SDS011;61444;59.472;18.306;2023-09-19T00:23:52;10.77;;;5.70;;
11548;SDS011;61444;59.472;18.306;2023-09-19T00:26:03;9.43;;;5.53;;
11548;SDS011;61444;59.472;18.306;2023-09-19T00:28:12;8.10;;;5.47;;
11548;SDS011;61444;59.472;18.306;2023-09-19T00:30:23;10.40;;;5.90;;
11548;SDS011;61444;59.472;18.306;2023-09-19T00:32:32;8.70;;;5.70;;
11548;SDS011;61444;59.472;18.306;2023-09-19T00:34:41;9.23;;;5.70;;
11548;SDS011;61444;59.472;18.306;2023-09-19T00:36:50;9.33;;;5.93;;
11548;SDS011;61444;59.472;18.306;2023-09-19T00:38:59;8.77;;;5.93;;
11548;SDS011;61444;59.472;18.306;2023-09-19T00:41:11;9.83;;;6.07;;
11548;SDS011;61444;59.472;18.306;2023-09-19T00:43:20;11.20;;;6.43;;
11548;SDS011;61444;59.472;18.306;2023-09-19T00:45:33;11.53;;;6.50;;
11548;SDS011;61444;59.472;18.306;2023-09-19T00:47:45;11.93;;;6.90;;
11548;SDS011;61444;59.472;18.306;2023-09-19T00:49:56;12.03;;;6.83;;
11548;SDS011;61444;59.472;18.306;2023-09-19T00:52:05;9.33;;;6.93;;
11548;SDS011;61444;59.472;18.306;2023-09-19T00:54:16;11.43;;;7.37;;
11548;SDS011;61444;59.472;18.306;2023-09-19T00:56:28;13.23;;;7.47;;
11548;SDS011;61444;59.472;18.306;2023-09-19T00:58:38;10.90;;;6.73;;
11548;SDS011;61444;59.472;18.306;2023-09-19T01:00:47;11.47;;;7.53;;
11548;SDS011;61444;59.472;18.306;2023-09-19T01:02:57;11.40;;;7.43;;
11548;SDS011;61444;59.472;18.306;2023-09-19T01:05:05;11.63;;;6.77;;
11548;SDS011;61444;59.472;18.306;2023-09-19T01:07:14;11.90;;;7.60;;
11548;SDS011;61444;59.472;18.306;2023-09-19T01:09:23;11.07;;;7.30;;
11548;SDS011;61444;59.472;18.306;2023-09-19T01:11:35;13.03;;;7.40;;
11548;SDS011;61444;59.472;18.306;2023-09-19T01:13:48;17.10;;;8.27;;
11548;SDS011;61444;59.472;18.306;2023-09-19T01:16:00;12.27;;;7.30;;
11548;SDS011;61444;59.472;18.306;2023-09-19T01:18:12;14.03;;;7.87;;
11548;SDS011;61444;59.472;18.306;2023-09-19T01:20:27;9.77;;;7.30;;
11548;SDS011;61444;59.472;18.306;2023-09-19T01:22:42;13.67;;;7.97;;
11548;SDS011;61444;59.472;18.306;2023-09-19T01:25:03;8.90;;;7.77;;
11548;SDS011;61444;59.472;18.306;2023-09-19T01:29:41;12.63;;;8.00;;
11548;SDS011;61444;59.472;18.306;2023-09-19T01:31:52;15.23;;;7.87;;
11548;SDS011;61444;59.472;18.306;2023-09-19T01:34:02;12.20;;;7.63;;
11548;SDS011;61444;59.472;18.306;2023-09-19T01:36:12;11.90;;;8.93;;
11548;SDS011;61444;59.472;18.306;2023-09-19T01:38:20;14.50;;;7.53;;
11548;SDS011;61444;59.472;18.306;2023-09-19T01:40:30;11.83;;;7.73;;
11548;SDS011;61444;59.472;18.306;2023-09-19T01:42:40;11.70;;;8.60;;
11548;SDS011;61444;59.472;18.306;2023-09-19T01:44:51;12.10;;;7.93;;
11548;SDS011;61444;59.472;18.306;2023-09-19T01:47:03;10.30;;;7.90;;
11548;SDS011;61444;59.472;18.306;2023-09-19T01:49:15;10.73;;;7.57;;
11548;SDS011;61444;59.472;18.306;2023-09-19T01:51:28;11.13;;;8.53;;
11548;SDS011;61444;59.472;18.306;2023-09-19T01:53:43;14.97;;;8.00;;
11548;SDS011;61444;59.472;18.306;2023-09-19T01:55:53;11.37;;;8.23;;
11548;SDS011;61444;59.472;18.306;2023-09-19T01:58:04;17.13;;;9.10;;
11548;SDS011;61444;59.472;18.306;2023-09-19T02:00:15;10.90;;;8.30;;
11548;SDS011;61444;59.472;18.306;2023-09-19T02:02:29;12.83;;;8.20;;
11548;SDS011;61444;59.472;18.306;2023-09-19T02:04:39;12.73;;;8.20;;
11548;SDS011;61444;59.472;18.306;2023-09-19T02:06:48;14.50;;;8.57;;
11548;SDS011;61444;59.472;18.306;2023-09-19T02:08:58;16.47;;;9.20;;
11548;SDS011;61444;59.472;18.306;2023-09-19T02:11:07;13.00;;;9.00;;
11548;SDS011;61444;59.472;18.306;2023-09-19T02:13:15;14.13;;;9.57;;
11548;SDS011;61444;59.472;18.306;2023-09-19T02:15:25;15.50;;;8.60;;
11548;SDS011;61444;59.472;18.306;2023-09-19T02:17:35;12.90;;;8.70;;
11548;SDS011;61444;59.472;18.306;2023-09-19T02:19:45;16.40;;;9.63;;
11548;SDS011;61444;59.472;18.306;2023-09-19T02:21:53;15.17;;;9.57;;
11548;SDS011;61444;59.472;18.306;2023-09-19T02:24:02;12.93;;;9.20;;
11548;SDS011;61444;59.472;18.306;2023-09-19T02:26:12;13.30;;;9.93;;
11548;SDS011;61444;59.472;18.306;2023-09-19T02:28:21;15.63;;;9.83;;
11548;SDS011;61444;59.472;18.306;2023-09-19T02:30:30;16.50;;;10.30;;
11548;SDS011;61444;59.472;18.306;2023-09-19T02:32:40;15.43;;;10.07;;
11548;SDS011;61444;59.472;18.306;2023-09-19T02:34:49;17.97;;;10.93;;
11548;SDS011;61444;59.472;18.306;2023-09-19T02:36:58;16.50;;;10.27;;
11548;SDS011;61444;59.472;18.306;2023-09-19T02:39:07;14.47;;;9.77;;
11548;SDS011;61444;59.472;18.306;2023-09-19T02:41:15;13.27;;;9.93;;
11548;SDS011;61444;59.472;18.306;2023-09-19T02:43:24;12.03;;;9.93;;
11548;SDS011;61444;59.472;18.306;2023-09-19T02:45:33;16.13;;;10.50;;
11548;SDS011;61444;59.472;18.306;2023-09-19T02:47:44;15.90;;;10.10;;
11548;SDS011;61444;59.472;18.306;2023-09-19T02:49:53;18.47;;;10.33;;
11548;SDS011;61444;59.472;18.306;2023-09-19T02:52:02;17.77;;;10.93;;
11548;SDS011;61444;59.472;18.306;2023-09-19T02:54:13;17.00;;;11.07;;
11548;SDS011;61444;59.472;18.306;2023-09-19T02:56:23;16.57;;;11.67;;
11548;SDS011;61444;59.472;18.306;2023-09-19T02:58:33;15.07;;;10.70;;
11548;SDS011;61444;59.472;18.306;2023-09-19T03:00:42;14.80;;;10.97;;
11548;SDS011;61444;59.472;18.306;2023-09-19T03:02:55;18.97;;;10.87;;
11548;SDS011;61444;59.472;18.306;2023-09-19T03:05:04;17.10;;;10.57;;
11548;SDS011;61444;59.472;18.306;2023-09-19T03:07:14;14.53;;;11.07;;
11548;SDS011;61444;59.472;18.306;2023-09-19T03:09:23;15.70;;;11.13;;
11548;SDS011;61444;59.472;18.306;2023-09-19T03:11:32;18.13;;;11.87;;
11548;SDS011;61444;59.472;18.306;2023-09-19T03:13:40;15.47;;;11.17;;
11548;SDS011;61444;59.472;18.306;2023-09-19T03:15:53;20.33;;;11.57;;
11548;SDS011;61444;59.472;18.306;2023-09-19T03:18:06;17.30;;;12.30;;
11548;SDS011;61444;59.472;18.306;2023-09-19T03:20:15;16.37;;;11.97;;
11548;SDS011;61444;59.472;18.306;2023-09-19T03:22:26;21.93;;;12.17;;
11548;SDS011;61444;59.472;18.306;2023-09-19T03:24:35;16.47;;;12.03;;
11548;SDS011;61444;59.472;18.306;2023-09-19T03:26:44;15.33;;;11.73;;
11548;SDS011;61444;59.472;18.306;2023-09-19T03:28:53;17.07;;;11.47;;
11548;SDS011;61444;59.472;18.306;2023-09-19T03:31:04;18.47;;;13.17;;
11548;SDS011;61444;59.472;18.306;2023-09-19T03:33:15;19.03;;;12.77;;
11548;SDS011;61444;59.472;18.306;2023-09-19T03:35:24;21.83;;;13.00;;
11548;SDS011;61444;59.472;18.306;2023-09-19T03:37:33;22.13;;;12.53;;
11548;SDS011;61444;59.472;18.306;2023-09-19T03:39:43;21.73;;;13.57;;
11548;SDS011;61444;59.472;18.306;2023-09-19T03:41:52;19.57;;;13.57;;
11548;SDS011;61444;59.472;18.306;2023-09-19T03:44:00;27.17;;;14.13;;
11548;SDS011;61444;59.472;18.306;2023-09-19T03:46:09;19.73;;;13.33;;
11548;SDS011;61444;59.472;18.306;2023-09-19T03:48:21;27.23;;;13.57;;
11548;SDS011;61444;59.472;18.306;2023-09-19T03:50:29;20.20;;;12.60;;
11548;SDS011;61444;59.472;18.306;2023-09-19T03:52:39;17.60;;;12.47;;
11548;SDS011;61444;59.472;18.306;2023-09-19T03:54:48;22.37;;;14.40;;
11548;SDS011;61444;59.472;18.306;2023-09-19T03:56:57;15.50;;;13.73;;
11548;SDS011;61444;59.472;18.306;2023-09-19T03:59:06;20.63;;;13.57;;
11548;SDS011;61444;59.472;18.306;2023-09-19T04:01:16;22.00;;;14.10;;
11548;SDS011;61444;59.472;18.306;2023-09-19T04:03:26;20.90;;;13.70;;
11548;SDS011;61444;59.472;18.306;2023-09-19T04:05:42;21.40;;;13.47;;
11548;SDS011;61444;59.472;18.306;2023-09-19T04:07:51;24.00;;;14.70;;
11548;SDS011;61444;59.472;18.306;2023-09-19T04:10:00;21.23;;;14.47;;
11548;SDS011;61444;59.472;18.306;2023-09-19T04:12:09;24.10;;;14.30;;
11548;SDS011;61444;59.472;18.306;2023-09-19T04:14:18;26.90;;;16.00;;
11548;SDS011;61444;59.472;18.306;2023-09-19T04:16:27;22.30;;;15.47;;
11548;SDS011;61444;59.472;18.306;2023-09-19T04:18:38;19.10;;;14.37;;
11548;SDS011;61444;59.472;18.306;2023-09-19T04:20:47;28.10;;;15.77;;
11548;SDS011;61444;59.472;18.306;2023-09-19T04:22:55;22.13;;;15.07;;
11548;SDS011;61444;59.472;18.306;2023-09-19T04:25:06;19.93;;;15.40;;
11548;SDS011;61444;59.472;18.306;2023-09-19T04:27:15;19.47;;;15.13;;
11548;SDS011;61444;59.472;18.306;2023-09-19T04:29:25;24.17;;;15.40;;
11548;SDS011;61444;59.472;18.306;2023-09-19T04:31:36;24.33;;;14.43;;
11548;SDS011;61444;59.472;18.306;2023-09-19T04:33:52;21.70;;;15.20;;
11548;SDS011;61444;59.472;18.306;2023-09-19T04:36:01;24.47;;;15.57;;
11548;SDS011;61444;59.472;18.306;2023-09-19T04:38:32;23.27;;;14.80;;
11548;SDS011;61444;59.472;18.306;2023-09-19T04:40:41;21.97;;;14.77;;
11548;SDS011;61444;59.472;18.306;2023-09-19T04:42:52;24.43;;;15.77;;
11548;SDS011;61444;59.472;18.306;2023-09-19T04:45:03;19.10;;;13.93;;
11548;SDS011;61444;59.472;18.306;2023-09-19T04:47:11;23.10;;;15.33;;
11548;SDS011;61444;59.472;18.306;2023-09-19T04:49:22;20.97;;;15.03;;
11548;SDS011;61444;59.472;18.306;2023-09-19T04:51:31;23.50;;;16.73;;
11548;SDS011;61444;59.472;18.306;2023-09-19T04:53:43;21.30;;;15.13;;
11548;SDS011;61444;59.472;18.306;2023-09-19T04:55:51;25.30;;;15.83;;
11548;SDS011;61444;59.472;18.306;2023-09-19T04:58:02;22.63;;;15.07;;
11548;SDS011;61444;59.472;18.306;2023-09-19T05:00:12;21.77;;;15.90;;
11548;SDS011;61444;59.472;18.306;2023-09-19T05:02:21;20.33;;;15.87;;
11548;SDS011;61444;59.472;18.306;2023-09-19T05:04:32;25.10;;;16.70;;
11548;SDS011;61444;59.472;18.306;2023-09-19T05:06:42;21.30;;;15.87;;
11548;SDS011;61444;59.472;18.306;2023-09-19T05:08:52;23.83;;;15.70;;
11548;SDS011;61444;59.472;18.306;2023-09-19T05:11:01;24.43;;;16.80;;
11548;SDS011;61444;59.472;18.306;2023-09-19T05:13:10;23.23;;;16.00;;
11548;SDS011;61444;59.472;18.306;2023-09-19T05:15:19;21.90;;;15.43;;
11548;SDS011;61444;59.472;18.306;2023-09-19T05:17:28;22.47;;;15.80;;
11548;SDS011;61444;59.472;18.306;2023-09-19T05:19:38;21.67;;;15.70;;
11548;SDS011;61444;59.472;18.306;2023-09-19T05:21:47;23.23;;;16.60;;
11548;SDS011;61444;59.472;18.306;2023-09-19T05:23:55;24.03;;;17.07;;
11548;SDS011;61444;59.472;18.306;2023-09-19T05:26:04;25.90;;;16.73;;
11548;SDS011;61444;59.472;18.306;2023-09-19T05:28:13;26.20;;;16.73;;
11548;SDS011;61444;59.472;18.306;2023-09-19T05:30:22;25.70;;;17.83;;
11548;SDS011;61444;59.472;18.306;2023-09-19T05:32:31;24.87;;;16.67;;
11548;SDS011;61444;59.472;18.306;2023-09-19T05:34:40;25.83;;;17.70;;
11548;SDS011;61444;59.472;18.306;2023-09-19T05:36:49;21.40;;;17.60;;
11548;SDS011;61444;59.472;18.306;2023-09-19T05:38:58;22.83;;;17.53;;
11548;SDS011;61444;59.472;18.306;2023-09-19T05:41:08;28.13;;;17.63;;
11548;SDS011;61444;59.472;18.306;2023-09-19T05:43:20;25.57;;;18.53;;
11548;SDS011;61444;59.472;18.306;2023-09-19T05:45:28;25.40;;;17.93;;
11548;SDS011;61444;59.472;18.306;2023-09-19T05:47:37;25.67;;;18.37;;
11548;SDS011;61444;59.472;18.306;2023-09-19T05:49:48;23.83;;;18.23;;
11548;SDS011;61444;59.472;18.306;2023-09-19T05:51:57;23.87;;;18.77;;
11548;SDS011;61444;59.472;18.306;2023-09-19T05:54:08;25.17;;;19.00;;
11548;SDS011;61444;59.472;18.306;2023-09-19T05:56:17;27.67;;;18.47;;
11548;SDS011;61444;59.472;18.306;2023-09-19T05:58:27;25.13;;;18.17;;
11548;SDS011;61444;59.472;18.306;2023-09-19T06:00:37;26.73;;;18.70;;
11548;SDS011;61444;59.472;18.306;2023-09-19T06:02:49;22.93;;;16.77;;
11548;SDS011;61444;59.472;18.306;2023-09-19T06:05:00;24.73;;;16.77;;
11548;SDS011;61444;59.472;18.306;2023-09-19T06:07:10;20.17;;;16.07;;
11548;SDS011;61444;59.472;18.306;2023-09-19T06:09:18;23.20;;;16.00;;
11548;SDS011;61444;59.472;18.306;2023-09-19T06:11:29;22.13;;;16.03;;
11548;SDS011;61444;59.472;18.306;2023-09-19T06:13:41;28.07;;;16.43;;
11548;SDS011;61444;59.472;18.306;2023-09-19T06:15:50;22.87;;;15.67;;
11548;SDS011;61444;59.472;18.306;2023-09-19T06:17:58;23.60;;;15.73;;
11548;SDS011;61444;59.472;18.306;2023-09-19T06:20:09;19.57;;;15.50;;
11548;SDS011;61444;59.472;18.306;2023-09-19T06:22:20;20.33;;;15.33;;
11548;SDS011;61444;59.472;18.306;2023-09-19T06:24:30;23.53;;;16.57;;
11548;SDS011;61444;59.472;18.306;2023-09-19T06:26:39;20.63;;;15.97;;
11548;SDS011;61444;59.472;18.306;2023-09-19T06:28:51;26.37;;;17.27;;
11548;SDS011;61444;59.472;18.306;2023-09-19T06:31:01;20.30;;;16.47;;
11548;SDS011;61444;59.472;18.306;2023-09-19T06:33:09;24.70;;;17.63;;
11548;SDS011;61444;59.472;18.306;2023-09-19T06:35:25;21.93;;;17.27;;
11548;SDS011;61444;59.472;18.306;2023-09-19T06:37:33;24.40;;;18.10;;
11548;SDS011;61444;59.472;18.306;2023-09-19T06:39:45;24.27;;;18.00;;
11548;SDS011;61444;59.472;18.306;2023-09-19T06:41:54;30.90;;;18.73;;
11548;SDS011;61444;59.472;18.306;2023-09-19T06:44:03;26.23;;;18.60;;
11548;SDS011;61444;59.472;18.306;2023-09-19T06:46:12;26.63;;;18.93;;
11548;SDS011;61444;59.472;18.306;2023-09-19T06:48:21;27.50;;;18.50;;
11548;SDS011;61444;59.472;18.306;2023-09-19T06:50:33;26.77;;;17.93;;
11548;SDS011;61444;59.472;18.306;2023-09-19T06:52:42;27.97;;;18.43;;
11548;SDS011;61444;59.472;18.306;2023-09-19T06:54:52;23.60;;;18.67;;
11548;SDS011;61444;59.472;18.306;2023-09-19T06:57:01;23.20;;;18.37;;
11548;SDS011;61444;59.472;18.306;2023-09-19T06:59:10;24.37;;;18.40;;
11548;SDS011;61444;59.472;18.306;2023-09-19T07:01:21;21.17;;;17.50;;
11548;SDS011;61444;59.472;18.306;2023-09-19T07:03:30;23.67;;;17.80;;
11548;SDS011;61444;59.472;18.306;2023-09-19T07:05:42;21.23;;;18.50;;
11548;SDS011;61444;59.472;18.306;2023-09-19T07:07:50;23.50;;;17.90;;
11548;SDS011;61444;59.472;18.306;2023-09-19T07:09:59;23.47;;;18.00;;
11548;SDS011;61444;59.472;18.306;2023-09-19T07:12:09;22.07;;;17.77;;
11548;SDS011;61444;59.472;18.306;2023-09-19T07:14:18;23.17;;;17.70;;
11548;SDS011;61444;59.472;18.306;2023-09-19T07:16:28;23.47;;;17.83;;
11548;SDS011;61444;59.472;18.306;2023-09-19T07:18:37;26.80;;;18.73;;
11548;SDS011;61444;59.472;18.306;2023-09-19T07:20:47;30.93;;;18.97;;
11548;SDS011;61444;59.472;18.306;2023-09-19T07:22:57;29.57;;;19.73;;
11548;SDS011;61444;59.472;18.306;2023-09-19T07:25:06;24.80;;;18.43;;
11548;SDS011;61444;59.472;18.306;2023-09-19T07:27:16;25.47;;;17.77;;
11548;SDS011;61444;59.472;18.306;2023-09-19T07:29:24;32.97;;;19.10;;
11548;SDS011;61444;59.472;18.306;2023-09-19T07:31:34;28.23;;;18.57;;
11548;SDS011;61444;59.472;18.306;2023-09-19T07:33:42;29.83;;;17.83;;
11548;SDS011;61444;59.472;18.306;2023-09-19T07:35:52;21.37;;;17.10;;
11548;SDS011;61444;59.472;18.306;2023-09-19T07:38:02;24.30;;;15.97;;
11548;SDS011;61444;59.472;18.306;2023-09-19T07:40:11;18.00;;;12.63;;
11548;SDS011;61444;59.472;18.306;2023-09-19T07:42:19;21.23;;;12.87;;
11548;SDS011;61444;59.472;18.306;2023-09-19T07:44:27;16.67;;;11.50;;
11548;SDS011;61444;59.472;18.306;2023-09-19T07:46:36;17.90;;;12.00;;
11548;SDS011;61444;59.472;18.306;2023-09-19T07:48:45;18.73;;;11.70;;
11548;SDS011;61444;59.472;18.306;2023-09-19T07:51:00;18.53;;;12.60;;
11548;SDS011;61444;59.472;18.306;2023-09-19T07:53:09;20.77;;;13.47;;
11548;SDS011;61444;59.472;18.306;2023-09-19T07:55:20;22.93;;;14.40;;
11548;SDS011;61444;59.472;18.306;2023-09-19T07:57:31;22.30;;;16.20;;
11548;SDS011;61444;59.472;18.306;2023-09-19T07:59:41;23.97;;;16.53;;
11548;SDS011;61444;59.472;18.306;2023-09-19T08:01:50;22.43;;;16.40;;
11548;SDS011;61444;59.472;18.306;2023-09-19T08:03:58;26.97;;;17.50;;
11548;SDS011;61444;59.472;18.306;2023-09-19T08:06:09;25.43;;;17.27;;
11548;SDS011;61444;59.472;18.306;2023-09-19T08:08:17;21.53;;;16.30;;
11548;SDS011;61444;59.472;18.306;2023-09-19T08:10:28;22.87;;;16.57;;
11548;SDS011;61444;59.472;18.306;2023-09-19T08:12:42;21.47;;;16.27;;
11548;SDS011;61444;59.472;18.306;2023-09-19T08:14:53;22.53;;;16.67;;
11548;SDS011;61444;59.472;18.306;2023-09-19T08:17:03;24.73;;;16.93;;
11548;SDS011;61444;59.472;18.306;2023-09-19T08:19:15;23.90;;;16.97;;
11548;SDS011;61444;59.472;18.306;2023-09-19T08:21:25;22.83;;;16.63;;
11548;SDS011;61444;59.472;18.306;2023-09-19T08:23:36;23.60;;;17.03;;
11548;SDS011;61444;59.472;18.306;2023-09-19T08:25:45;23.77;;;17.03;;
11548;SDS011;61444;59.472;18.306;2023-09-19T08:27:53;23.23;;;17.13;;
11548;SDS011;61444;59.472;18.306;2023-09-19T08:30:07;22.80;;;16.90;;
11548;SDS011;61444;59.472;18.306;2023-09-19T08:32:17;23.17;;;17.37;;
11548;SDS011;61444;59.472;18.306;2023-09-19T08:34:30;23.77;;;17.37;;
11548;SDS011;61444;59.472;18.306;2023-09-19T08:36:42;23.97;;;17.40;;
11548;SDS011;61444;59.472;18.306;2023-09-19T08:38:52;29.77;;;18.87;;
11548;SDS011;61444;59.472;18.306;2023-09-19T08:41:04;28.23;;;19.47;;
11548;SDS011;61444;59.472;18.306;2023-09-19T08:43:14;28.30;;;19.13;;
11548;SDS011;61444;59.472;18.306;2023-09-19T08:45:23;24.57;;;20.23;;
11548;SDS011;61444;59.472;18.306;2023-09-19T08:47:36;29.23;;;20.17;;
11548;SDS011;61444;59.472;18.306;2023-09-19T08:49:53;25.70;;;20.97;;
11548;SDS011;61444;59.472;18.306;2023-09-19T08:52:16;28.10;;;21.37;;
11548;SDS011;61444;59.472;18.306;2023-09-19T08:54:32;27.63;;;19.43;;
11548;SDS011;61444;59.472;18.306;2023-09-19T08:56:46;28.17;;;22.27;;
11548;SDS011;61444;59.472;18.306;2023-09-19T08:58:57;27.30;;;21.03;;
11548;SDS011;61444;59.472;18.306;2023-09-19T09:01:08;28.40;;;20.20;;
11548;SDS011;61444;59.472;18.306;2023-09-19T09:03:18;29.93;;;20.47;;
11548;SDS011;61444;59.472;18.306;2023-09-19T09:05:29;30.13;;;20.03;;
11548;SDS011;61444;59.472;18.306;2023-09-19T09:07:41;25.97;;;20.30;;
11548;SDS011;61444;59.472;18.306;2023-09-19T09:09:51;28.90;;;21.03;;
11548;SDS011;61444;59.472;18.306;2023-09-19T09:12:00;31.97;;;20.73;;
11548;SDS011;61444;59.472;18.306;2023-09-19T09:14:10;31.33;;;21.10;;
11548;SDS011;61444;59.472;18.306;2023-09-19T09:16:19;28.83;;;21.07;;
11548;SDS011;61444;59.472;18.306;2023-09-19T09:18:27;26.53;;;21.17;;
11548;SDS011;61444;59.472;18.306;2023-09-19T09:20:37;34.67;;;20.90;;
11548;SDS011;61444;59.472;18.306;2023-09-19T09:25:12;29.27;;;20.63;;
11548;SDS011;61444;59.472;18.306;2023-09-19T09:27:21;29.07;;;19.50;;
11548;SDS011;61444;59.472;18.306;2023-09-19T09:29:43;23.50;;;19.07;;
11548;SDS011;61444;59.472;18.306;2023-09-19T09:31:57;25.23;;;19.97;;
11548;SDS011;61444;59.472;18.306;2023-09-19T09:34:31;23.07;;;18.60;;
11548;SDS011;61444;59.472;18.306;2023-09-19T09:36:41;23.57;;;18.37;;
11548;SDS011;61444;59.472;18.306;2023-09-19T09:38:52;26.93;;;17.87;;
11548;SDS011;61444;59.472;18.306;2023-09-19T09:41:01;26.40;;;17.90;;
11548;SDS011;61444;59.472;18.306;2023-09-19T09:43:24;23.67;;;17.47;;
11548;SDS011;61444;59.472;18.306;2023-09-19T09:45:34;21.67;;;17.40;;
11548;SDS011;61444;59.472;18.306;2023-09-19T09:47:45;23.27;;;16.57;;
11548;SDS011;61444;59.472;18.306;2023-09-19T09:50:01;18.20;;;15.70;;
11548;SDS011;61444;59.472;18.306;2023-09-19T09:52:14;23.03;;;15.13;;
11548;SDS011;61444;59.472;18.306;2023-09-19T09:54:26;18.23;;;15.00;;
11548;SDS011;61444;59.472;18.306;2023-09-19T09:56:53;19.33;;;15.43;;
11548;SDS011;61444;59.472;18.306;2023-09-19T09:59:05;21.50;;;14.40;;
11548;SDS011;61444;59.472;18.306;2023-09-19T10:01:14;20.97;;;14.77;;
11548;SDS011;61444;59.472;18.306;2023-09-19T10:03:31;18.37;;;14.73;;
11548;SDS011;61444;59.472;18.306;2023-09-19T10:05:46;20.30;;;14.17;;
11548;SDS011;61444;59.472;18.306;2023-09-19T10:08:10;15.43;;;12.40;;
11548;SDS011;61444;59.472;18.306;2023-09-19T10:10:31;18.60;;;13.53;;
11548;SDS011;61444;59.472;18.306;2023-09-19T10:13:01;18.13;;;14.03;;
11548;SDS011;61444;59.472;18.306;2023-09-19T10:15:10;17.07;;;12.67;;
11548;SDS011;61444;59.472;18.306;2023-09-19T10:17:22;17.53;;;12.47;;
11548;SDS011;61444;59.472;18.306;2023-09-19T10:19:36;16.17;;;12.20;;
11548;SDS011;61444;59.472;18.306;2023-09-19T10:21:45;15.40;;;12.10;;
11548;SDS011;61444;59.472;18.306;2023-09-19T10:23:54;13.57;;;11.73;;
11548;SDS011;61444;59.472;18.306;2023-09-19T10:26:07;19.67;;;12.60;;
11548;SDS011;61444;59.472;18.306;2023-09-19T10:28:17;15.17;;;11.20;;
11548;SDS011;61444;59.472;18.306;2023-09-19T10:30:30;17.87;;;11.77;;
11548;SDS011;61444;59.472;18.306;2023-09-19T10:32:41;12.90;;;10.87;;
11548;SDS011;61444;59.472;18.306;2023-09-19T10:34:50;17.73;;;11.27;;
11548;SDS011;61444;59.472;18.306;2023-09-19T10:37:02;15.97;;;10.23;;
11548;SDS011;61444;59.472;18.306;2023-09-19T10:39:13;13.73;;;10.40;;
11548;SDS011;61444;59.472;18.306;2023-09-19T10:41:29;11.00;;;9.60;;
11548;SDS011;61444;59.472;18.306;2023-09-19T10:43:38;14.53;;;9.27;;
11548;SDS011;61444;59.472;18.306;2023-09-19T10:45:51;11.53;;;8.53;;
11548;SDS011;61444;59.472;18.306;2023-09-19T10:48:05;10.93;;;8.63;;
11548;SDS011;61444;59.472;18.306;2023-09-19T10:50:19;12.33;;;8.30;;
11548;SDS011;61444;59.472;18.306;2023-09-19T10:52:29;9.37;;;7.93;;
11548;SDS011;61444;59.472;18.306;2023-09-19T10:54:41;10.03;;;7.60;;
11548;SDS011;61444;59.472;18.306;2023-09-19T10:56:59;10.80;;;7.37;;
11548;SDS011;61444;59.472;18.306;2023-09-19T10:59:12;8.77;;;7.23;;
11548;SDS011;61444;59.472;18.306;2023-09-19T11:01:33;10.83;;;7.27;;
11548;SDS011;61444;59.472;18.306;2023-09-19T11:03:51;9.40;;;6.90;;
11548;SDS011;61444;59.472;18.306;2023-09-19T11:06:30;10.10;;;7.13;;
11548;SDS011;61444;59.472;18.306;2023-09-19T11:08:53;10.40;;;7.17;;
11548;SDS011;61444;59.472;18.306;2023-09-19T11:11:04;7.80;;;7.00;;
11548;SDS011;61444;59.472;18.306;2023-09-19T11:13:37;8.87;;;7.07;;
11548;SDS011;61444;59.472;18.306;2023-09-19T11:20:49;11.07;;;6.27;;
11548;SDS011;61444;59.472;18.306;2023-09-19T11:23:19;6.67;;;6.10;;
11548;SDS011;61444;59.472;18.306;2023-09-19T11:25:46;8.37;;;6.23;;
11548;SDS011;61444;59.472;18.306;2023-09-19T11:30:28;6.77;;;5.70;;
11548;SDS011;61444;59.472;18.306;2023-09-19T11:35:08;7.73;;;5.43;;
11548;SDS011;61444;59.472;18.306;2023-09-19T11:44:52;6.80;;;5.50;;
11548;SDS011;61444;59.472;18.306;2023-09-19T11:47:04;7.80;;;5.40;;
11548;SDS011;61444;59.472;18.306;2023-09-19T11:49:13;9.50;;;5.10;;
11548;SDS011;61444;59.472;18.306;2023-09-19T11:51:37;6.10;;;4.90;;
11548;SDS011;61444;59.472;18.306;2023-09-19T11:53:50;5.77;;;4.90;;
11548;SDS011;61444;59.472;18.306;2023-09-19T11:55:59;5.53;;;5.03;;
11548;SDS011;61444;59.472;18.306;2023-09-19T11:58:07;6.63;;;5.20;;
11548;SDS011;61444;59.472;18.306;2023-09-19T12:00:19;6.37;;;5.07;;
11548;SDS011;61444;59.472;18.306;2023-09-19T12:02:34;6.37;;;5.13;;
11548;SDS011;61444;59.472;18.306;2023-09-19T12:04:53;4.77;;;4.13;;
11548;SDS011;61444;59.472;18.306;2023-09-19T12:07:02;6.80;;;4.30;;
11548;SDS011;61444;59.472;18.306;2023-09-19T12:09:12;4.27;;;3.70;;
11548;SDS011;61444;59.472;18.306;2023-09-19T12:11:23;3.93;;;3.53;;
11548;SDS011;61444;59.472;18.306;2023-09-19T12:13:35;4.70;;;3.10;;
11548;SDS011;61444;59.472;18.306;2023-09-19T12:15:45;4.33;;;2.90;;
11548;SDS011;61444;59.472;18.306;2023-09-19T12:17:57;2.43;;;2.23;;
11548;SDS011;61444;59.472;18.306;2023-09-19T12:20:06;4.17;;;2.60;;
11548;SDS011;61444;59.472;18.306;2023-09-19T12:22:19;3.10;;;2.80;;
11548;SDS011;61444;59.472;18.306;2023-09-19T12:24:28;4.60;;;2.43;;
11548;SDS011;61444;59.472;18.306;2023-09-19T12:26:37;3.17;;;2.63;;
11548;SDS011;61444;59.472;18.306;2023-09-19T12:28:50;3.67;;;2.20;;
11548;SDS011;61444;59.472;18.306;2023-09-19T12:31:05;3.87;;;3.10;;
11548;SDS011;61444;59.472;18.306;2023-09-19T12:33:17;3.47;;;2.73;;
11548;SDS011;61444;59.472;18.306;2023-09-19T12:35:27;4.50;;;3.23;;
11548;SDS011;61444;59.472;18.306;2023-09-19T12:37:37;5.00;;;2.90;;
11548;SDS011;61444;59.472;18.306;2023-09-19T12:39:52;3.70;;;2.73;;
11548;SDS011;61444;59.472;18.306;2023-09-19T12:42:02;4.63;;;2.83;;
11548;SDS011;61444;59.472;18.306;2023-09-19T12:44:15;4.50;;;2.53;;
11548;SDS011;61444;59.472;18.306;2023-09-19T12:46:24;2.43;;;2.20;;
11548;SDS011;61444;59.472;18.306;2023-09-19T12:48:35;2.33;;;2.13;;
11548;SDS011;61444;59.472;18.306;2023-09-19T12:51:03;3.03;;;2.40;;
11548;SDS011;61444;59.472;18.306;2023-09-19T12:53:24;3.07;;;2.30;;
11548;SDS011;61444;59.472;18.306;2023-09-19T12:55:36;3.37;;;2.30;;
11548;SDS011;61444;59.472;18.306;2023-09-19T12:57:54;4.30;;;2.17;;
11548;SDS011;61444;59.472;18.306;2023-09-19T13:00:04;2.60;;;2.27;;
11548;SDS011;61444;59.472;18.306;2023-09-19T13:02:17;5.27;;;2.00;;
11548;SDS011;61444;59.472;18.306;2023-09-19T13:04:33;3.40;;;2.20;;
11548;SDS011;61444;59.472;18.306;2023-09-19T13:06:47;3.27;;;2.40;;